CTSO2: Bird Creek At Catoosa

                                SHEF ID:       CTSO2     Bird Ck at State Highway 266 nea
STATION TYPE:
Regulating: Stage = 26.00, Flow = 20953

STAGE STAGE(2) RIV-FLOW WTR-TEMP DIS-OXY PH CONDUCT BAT-LOAD
ft ft cfs F mg/l su umho/cm volt
Ccp-Rev Ccp-Rev Ccp-Rev Ccp-Rev Ccp-Rev Ccp-Rev Ccp-Rev Ccp-Rev
(America/Chicago)
02/06 00:00 4.17 3.42 196 45.00 13.80 8.03 531 12.02
02/06 01:00 4.18 3.43 198 45.32 13.79 8.05 533 12.14
02/06 02:00 4.16 3.42 194 45.52 13.53 8.05 537 12.26
02/06 03:00 4.15 3.42 191 45.63 13.19 8.03 538 12.30
02/06 04:00 4.13 3.43 187 45.66 12.96 7.99 540 12.07
02/06 05:00 4.11 3.42 182 45.68 12.83 7.97 526 12.19
02/06 06:00 4.08 3.42 176 45.75 12.48 7.93 529 12.45
02/06 07:00 4.04 3.42 167 46.00 12.41 8.03 531 12.40
02/06 08:00 4.08 3.43 176 46.35 12.28 7.94 536 12.44
02/06 09:00 4.09 3.42 178 46.69 12.38 7.89 534 13.72
02/06 10:00 4.11 3.42 182 47.01 12.29 7.92 534 13.65
02/06 11:00 4.08 3.42 176 47.46 12.54 7.92 538 13.43
02/06 12:00 4.12 3.42 184 47.70 12.66 7.93 538 13.39
02/06 13:00 4.12 3.43 184 47.73 12.85 7.94 539 13.31
02/06 14:00 4.12 3.42 184 47.66 12.70 7.98 536 13.26
02/06 15:00 4.12 3.42 184 47.55 12.65 7.96 533 13.17
02/06 16:00 4.14 3.42 189 47.41 12.66 8.00 533 13.13
02/06 17:00 4.17 3.42 196 47.25 12.60 7.94 529 13.10
02/06 18:00 4.16 3.42 194 47.07 12.89 7.94 524 12.90
02/06 19:00 4.17 3.42 196 46.90 12.77 7.96 520 12.76
02/06 20:00 4.16 3.43 194 46.89 13.03 7.96 521 12.70
02/06 21:00 4.14 3.42 189 46.85 12.78 8.00 520 12.70
02/06 22:00 4.16 3.42 194 46.83 12.91 8.02 517 12.67
02/06 23:00 ---- ---- ---- ---- ---- ---- ---- ----
Data processed at Sat 07Feb2026 05:21 GMT

NOTICE: If you are parsing this page

Please convert to using our Data API. Starting early 2026 we will be migrating to: https://water.usace.army.mil with modern pages rendered in JavaScript. When this migration completes you will no longer be able to scrape this page! CWMSDataAPI (CDA)

Timeseries IDs (TSIDs)

TSIDs used from left to right in the data table
CATB.Stage.Inst.1Hour.0.Ccp-Rev
CATB.Stage-Alt.Inst.1Hour.0.Ccp-Rev
CATB.Flow.Inst.1Hour.0.Ccp-Rev
CATB.Temp-Water.Inst.1Hour.0.Ccp-Rev
CATB.Conc-DO.Inst.1Hour.0.Ccp-Rev
CATB.pH.Inst.1Hour.0.Ccp-Rev
CATB.Cond-Water.Inst.1Hour.0.Ccp-Rev
CATB.Volt-Battery Load.Inst.1Hour.0.Ccp-Rev

                            

All information presented herein is the property of the government of the United States of America and may be revised or deleted at any time without prior notice. Dissemination of this information without the expressed written consent of the Public Affairs Office, Tulsa District U.S. Army Corps of Engineers is strictly prohibited. These data are gathered electronically and, as presented, have NOT undergone any form of quality control. These data are NOT guaranteed to be valid or correct.